This is the latest recevied weather packets stored in our database for station/object W7OG-10. If no packets are shown the sender has not sent any weather packets the latest 10 day(s).
| Time | Temp. | Humidity | Pressure | Rain* | Wind** | Luminosity | Snow |
|---|---|---|---|---|---|---|---|
| 1777318736 | 24.44° C | 98% | 1017.3 hPa | 0 mm | - | - | - |
| 1777312736 | 23.89° C | 100% | 1017 hPa | 0 mm | - | - | - |
| 1777310936 | 23.89° C | 100% | 1016.8 hPa | 0 mm | - | - | - |
| 1777310336 | 23.89° C | 100% | 1016.8 hPa | 0 mm | - | - | - |
| 1777306136 | 23.89° C | 100% | 1016.4 hPa | 0 mm | - | - | - |
| 1777304936 | 23.89° C | 100% | 1016.2 hPa | 0 mm | - | - | - |
| 1777302537 | 23.89° C | 100% | 1015.8 hPa | 0 mm | - | - | - |
| 1777298337 | 23.89° C | 100% | 1015.3 hPa | 0 mm | - | - | - |
| 1777293538 | 23.33° C | 100% | 1014.7 hPa | 0 mm | - | - | - |
| 1777292338 | 23.33° C | 100% | 1014.4 hPa | 0 mm | - | - | - |
| 1777278538 | 23.33° C | 100% | 1012.4 hPa | 0 mm | - | - | - |
| 1777277338 | 23.33° C | 100% | 1012.1 hPa | 0 mm | - | - | - |
| 1777276159 | 23.89° C | 100% | 1012 hPa | 0 mm | - | - | - |
| 1777273739 | 23.89° C | 99% | 1011.4 hPa | 0 mm | - | - | - |
| 1777273139 | 23.89° C | 99% | 1011.2 hPa | 0 mm | - | - | - |
| 1777270739 | 24.44° C | 98% | 1010.7 hPa | 0 mm | - | - | - |
| 1777259940 | 25.56° C | 90% | 1008.9 hPa | 0 mm | - | - | - |
| 1777250341 | 28.33° C | 63% | 1007.9 hPa | 0 mm | - | - | - |
| 1777247941 | 28.33° C | 66% | 1007.9 hPa | 0 mm | - | - | - |
| 1777246762 | 27.78° C | 69% | 1007.8 hPa | 0 mm | - | - | - |
| 1777242542 | 27.78° C | 72% | 1008.4 hPa | 0 mm | - | - | - |
| 1777238941 | 27.22° C | 75% | 1008.7 hPa | 0 mm | - | - | - |
| 1777233544 | 27.22° C | 67% | 1008.8 hPa | 0 mm | - | - | - |
| 1777230563 | 26.67° C | 74% | 1008.9 hPa | 0 mm | - | - | - |
| 1777228743 | 26.67° C | 75% | 1008.8 hPa | 0 mm | - | - | - |
* Rain latest hour (hover to see other rain measurements)
** Current wind speed in m/s (hover to see current wind gust speed)